sensor_id;sensor_type;location;lat;lon;timestamp;temperature;humidity
19365;DHT22;9818;48.382;10.850;2022-12-18T00:00:23;-4.30;99.90
19365;DHT22;9818;48.382;10.850;2022-12-18T00:02:52;-4.20;99.90
19365;DHT22;9818;48.382;10.850;2022-12-18T00:05:21;-4.30;99.90
19365;DHT22;9818;48.382;10.850;2022-12-18T00:07:49;-4.20;99.90
19365;DHT22;9818;48.382;10.850;2022-12-18T00:10:18;-4.20;99.90
19365;DHT22;9818;48.382;10.850;2022-12-18T00:12:47;-4.30;99.90
19365;DHT22;9818;48.382;10.850;2022-12-18T00:15:16;-4.20;99.90
19365;DHT22;9818;48.382;10.850;2022-12-18T00:17:47;-4.20;99.90
19365;DHT22;9818;48.382;10.850;2022-12-18T00:20:16;-4.30;99.90
19365;DHT22;9818;48.382;10.850;2022-12-18T00:22:51;-4.30;99.90
19365;DHT22;9818;48.382;10.850;2022-12-18T00:25:19;-4.30;99.90
19365;DHT22;9818;48.382;10.850;2022-12-18T00:27:48;-4.30;99.90
19365;DHT22;9818;48.382;10.850;2022-12-18T00:30:17;-4.40;99.90
19365;DHT22;9818;48.382;10.850;2022-12-18T00:32:48;-4.40;99.90
19365;DHT22;9818;48.382;10.850;2022-12-18T00:35:17;-4.40;99.90
19365;DHT22;9818;48.382;10.850;2022-12-18T00:37:46;-4.40;99.90
19365;DHT22;9818;48.382;10.850;2022-12-18T00:40:14;-4.30;99.90
19365;DHT22;9818;48.382;10.850;2022-12-18T00:42:43;-4.30;99.90
19365;DHT22;9818;48.382;10.850;2022-12-18T00:45:25;-4.30;99.90
19365;DHT22;9818;48.382;10.850;2022-12-18T00:47:57;-4.20;99.90
19365;DHT22;9818;48.382;10.850;2022-12-18T00:50:26;-4.20;99.90
19365;DHT22;9818;48.382;10.850;2022-12-18T00:52:54;-4.20;99.90
19365;DHT22;9818;48.382;10.850;2022-12-18T00:55:23;-4.10;99.90
19365;DHT22;9818;48.382;10.850;2022-12-18T00:57:52;-4.10;99.90
19365;DHT22;9818;48.382;10.850;2022-12-18T01:00:21;-4.00;99.90
19365;DHT22;9818;48.382;10.850;2022-12-18T01:02:50;-4.10;99.90
19365;DHT22;9818;48.382;10.850;2022-12-18T01:05:21;-4.20;99.90
19365;DHT22;9818;48.382;10.850;2022-12-18T01:20:18;-4.10;99.90
19365;DHT22;9818;48.382;10.850;2022-12-18T01:22:46;-4.30;99.90
19365;DHT22;9818;48.382;10.850;2022-12-18T01:25:15;-4.40;99.90
19365;DHT22;9818;48.382;10.850;2022-12-18T01:27:44;-4.50;99.90
19365;DHT22;9818;48.382;10.850;2022-12-18T01:30:13;-4.50;99.90
19365;DHT22;9818;48.382;10.850;2022-12-18T01:32:41;-4.50;99.90
19365;DHT22;9818;48.382;10.850;2022-12-18T01:35:10;-4.60;99.90
19365;DHT22;9818;48.382;10.850;2022-12-18T01:37:41;-4.60;99.90
19365;DHT22;9818;48.382;10.850;2022-12-18T01:40:10;-4.60;99.90
19365;DHT22;9818;48.382;10.850;2022-12-18T01:42:39;-4.60;99.90
19365;DHT22;9818;48.382;10.850;2022-12-18T01:45:24;-4.50;99.90
19365;DHT22;9818;48.382;10.850;2022-12-18T01:47:55;-4.60;99.90
19365;DHT22;9818;48.382;10.850;2022-12-18T01:50:28;-4.70;99.90
19365;DHT22;9818;48.382;10.850;2022-12-18T01:53:04;-4.70;99.90
19365;DHT22;9818;48.382;10.850;2022-12-18T01:55:38;-4.70;99.90
19365;DHT22;9818;48.382;10.850;2022-12-18T01:58:08;-4.70;99.90
19365;DHT22;9818;48.382;10.850;2022-12-18T02:00:37;-4.60;99.90
19365;DHT22;9818;48.382;10.850;2022-12-18T02:03:06;-4.70;99.90
19365;DHT22;9818;48.382;10.850;2022-12-18T02:05:40;-4.70;99.90
19365;DHT22;9818;48.382;10.850;2022-12-18T02:08:15;-4.70;99.90
19365;DHT22;9818;48.382;10.850;2022-12-18T02:10:50;-4.80;99.90
19365;DHT22;9818;48.382;10.850;2022-12-18T02:13:29;-4.80;99.90
19365;DHT22;9818;48.382;10.850;2022-12-18T02:16:04;-4.90;99.90
19365;DHT22;9818;48.382;10.850;2022-12-18T02:18:38;-4.80;99.90
19365;DHT22;9818;48.382;10.850;2022-12-18T02:21:13;-4.80;99.90
19365;DHT22;9818;48.382;10.850;2022-12-18T02:23:54;-4.80;99.90
19365;DHT22;9818;48.382;10.850;2022-12-18T02:26:31;-4.80;99.90
19365;DHT22;9818;48.382;10.850;2022-12-18T02:29:06;-4.80;99.90
19365;DHT22;9818;48.382;10.850;2022-12-18T02:31:39;-4.80;99.90
19365;DHT22;9818;48.382;10.850;2022-12-18T02:34:09;-4.90;99.90
19365;DHT22;9818;48.382;10.850;2022-12-18T02:36:40;-4.80;99.90
19365;DHT22;9818;48.382;10.850;2022-12-18T02:39:11;-4.80;99.90
19365;DHT22;9818;48.382;10.850;2022-12-18T02:41:43;-4.90;99.90
19365;DHT22;9818;48.382;10.850;2022-12-18T02:44:13;-4.90;99.90
19365;DHT22;9818;48.382;10.850;2022-12-18T02:46:44;-4.80;99.90
19365;DHT22;9818;48.382;10.850;2022-12-18T02:49:27;-4.80;99.90
19365;DHT22;9818;48.382;10.850;2022-12-18T02:52:07;-4.80;99.90
19365;DHT22;9818;48.382;10.850;2022-12-18T02:54:46;-4.90;99.90
19365;DHT22;9818;48.382;10.850;2022-12-18T02:57:25;-5.00;99.90
19365;DHT22;9818;48.382;10.850;2022-12-18T03:00:00;-4.90;99.90
19365;DHT22;9818;48.382;10.850;2022-12-18T03:02:35;-5.00;99.90
19365;DHT22;9818;48.382;10.850;2022-12-18T03:05:08;-4.90;99.90
19365;DHT22;9818;48.382;10.850;2022-12-18T03:07:42;-4.90;99.90
19365;DHT22;9818;48.382;10.850;2022-12-18T03:10:16;-4.80;99.90
19365;DHT22;9818;48.382;10.850;2022-12-18T03:12:52;-4.80;99.90
19365;DHT22;9818;48.382;10.850;2022-12-18T03:15:26;-4.80;99.90
19365;DHT22;9818;48.382;10.850;2022-12-18T03:17:59;-4.80;99.90
19365;DHT22;9818;48.382;10.850;2022-12-18T03:20:29;-5.00;99.90
19365;DHT22;9818;48.382;10.850;2022-12-18T03:23:04;-5.00;99.90
19365;DHT22;9818;48.382;10.850;2022-12-18T03:25:37;-4.90;99.90
19365;DHT22;9818;48.382;10.850;2022-12-18T03:28:12;-4.90;99.90
19365;DHT22;9818;48.382;10.850;2022-12-18T03:30:44;-4.80;99.90
19365;DHT22;9818;48.382;10.850;2022-12-18T03:33:17;-4.80;99.90
19365;DHT22;9818;48.382;10.850;2022-12-18T03:35:47;-4.70;99.90
19365;DHT22;9818;48.382;10.850;2022-12-18T03:38:16;-4.70;99.90
19365;DHT22;9818;48.382;10.850;2022-12-18T03:40:53;-4.80;99.90
19365;DHT22;9818;48.382;10.850;2022-12-18T03:43:35;-4.70;99.90
19365;DHT22;9818;48.382;10.850;2022-12-18T03:46:11;-4.70;99.90
19365;DHT22;9818;48.382;10.850;2022-12-18T03:48:45;-4.80;99.90
19365;DHT22;9818;48.382;10.850;2022-12-18T03:51:22;-4.80;99.90
19365;DHT22;9818;48.382;10.850;2022-12-18T03:53:57;-4.80;99.90
19365;DHT22;9818;48.382;10.850;2022-12-18T03:56:29;-4.70;99.90
19365;DHT22;9818;48.382;10.850;2022-12-18T03:59:03;-4.60;99.90
19365;DHT22;9818;48.382;10.850;2022-12-18T04:01:34;-4.60;99.90
19365;DHT22;9818;48.382;10.850;2022-12-18T04:04:04;-4.60;99.90
19365;DHT22;9818;48.382;10.850;2022-12-18T04:06:35;-4.70;99.90
19365;DHT22;9818;48.382;10.850;2022-12-18T04:09:05;-4.70;99.90
19365;DHT22;9818;48.382;10.850;2022-12-18T04:11:34;-4.60;99.90
19365;DHT22;9818;48.382;10.850;2022-12-18T04:14:06;-4.60;99.90
19365;DHT22;9818;48.382;10.850;2022-12-18T04:16:34;-4.70;99.90
19365;DHT22;9818;48.382;10.850;2022-12-18T04:19:03;-4.70;99.90
19365;DHT22;9818;48.382;10.850;2022-12-18T04:21:32;-4.70;99.90
19365;DHT22;9818;48.382;10.850;2022-12-18T04:24:00;-4.80;99.90
19365;DHT22;9818;48.382;10.850;2022-12-18T04:26:29;-4.70;99.90
19365;DHT22;9818;48.382;10.850;2022-12-18T04:28:58;-4.70;99.90
19365;DHT22;9818;48.382;10.850;2022-12-18T04:31:29;-4.70;99.90
19365;DHT22;9818;48.382;10.850;2022-12-18T04:33:58;-4.80;99.90
19365;DHT22;9818;48.382;10.850;2022-12-18T04:36:26;-4.80;99.90
19365;DHT22;9818;48.382;10.850;2022-12-18T04:38:56;-4.80;99.90
19365;DHT22;9818;48.382;10.850;2022-12-18T04:41:24;-4.80;99.90
19365;DHT22;9818;48.382;10.850;2022-12-18T04:43:53;-4.70;99.90
19365;DHT22;9818;48.382;10.850;2022-12-18T04:46:22;-4.80;99.90
19365;DHT22;9818;48.382;10.850;2022-12-18T04:48:53;-4.80;99.90
19365;DHT22;9818;48.382;10.850;2022-12-18T04:51:22;-4.80;99.90
19365;DHT22;9818;48.382;10.850;2022-12-18T04:53:50;-4.80;99.90
19365;DHT22;9818;48.382;10.850;2022-12-18T04:56:19;-4.80;99.90
19365;DHT22;9818;48.382;10.850;2022-12-18T04:58:48;-4.80;99.90
19365;DHT22;9818;48.382;10.850;2022-12-18T05:01:18;-4.70;99.90
19365;DHT22;9818;48.382;10.850;2022-12-18T05:03:46;-4.80;99.90
19365;DHT22;9818;48.382;10.850;2022-12-18T05:06:18;-4.70;99.90
19365;DHT22;9818;48.382;10.850;2022-12-18T05:08:47;-4.80;99.90
19365;DHT22;9818;48.382;10.850;2022-12-18T05:11:16;-4.90;99.90
19365;DHT22;9818;48.382;10.850;2022-12-18T05:13:45;-4.90;99.90
19365;DHT22;9818;48.382;10.850;2022-12-18T05:16:14;-4.90;99.90
19365;DHT22;9818;48.382;10.850;2022-12-18T05:18:43;-4.90;99.90
19365;DHT22;9818;48.382;10.850;2022-12-18T05:21:12;-4.80;99.90
19365;DHT22;9818;48.382;10.850;2022-12-18T05:23:43;-4.80;99.90
19365;DHT22;9818;48.382;10.850;2022-12-18T05:26:16;-4.70;99.90
19365;DHT22;9818;48.382;10.850;2022-12-18T05:28:45;-4.70;99.90
19365;DHT22;9818;48.382;10.850;2022-12-18T05:31:14;-4.70;99.90
19365;DHT22;9818;48.382;10.850;2022-12-18T05:33:43;-4.70;99.90
19365;DHT22;9818;48.382;10.850;2022-12-18T05:36:15;-4.80;99.90
19365;DHT22;9818;48.382;10.850;2022-12-18T05:38:46;-4.80;99.90
19365;DHT22;9818;48.382;10.850;2022-12-18T05:41:15;-4.80;99.90
19365;DHT22;9818;48.382;10.850;2022-12-18T05:43:44;-4.70;99.90
19365;DHT22;9818;48.382;10.850;2022-12-18T05:46:14;-4.80;99.90
19365;DHT22;9818;48.382;10.850;2022-12-18T05:48:44;-4.80;99.90
19365;DHT22;9818;48.382;10.850;2022-12-18T05:51:15;-4.80;99.90
19365;DHT22;9818;48.382;10.850;2022-12-18T05:53:47;-4.90;99.90
19365;DHT22;9818;48.382;10.850;2022-12-18T05:56:18;-4.90;99.90
19365;DHT22;9818;48.382;10.850;2022-12-18T05:58:50;-4.90;99.90
19365;DHT22;9818;48.382;10.850;2022-12-18T06:01:21;-4.80;99.90
19365;DHT22;9818;48.382;10.850;2022-12-18T06:03:50;-4.80;99.90
19365;DHT22;9818;48.382;10.850;2022-12-18T06:06:21;-4.90;99.90
19365;DHT22;9818;48.382;10.850;2022-12-18T06:08:54;-4.90;99.90
19365;DHT22;9818;48.382;10.850;2022-12-18T06:11:24;-4.90;99.90
19365;DHT22;9818;48.382;10.850;2022-12-18T06:13:54;-4.90;99.90
19365;DHT22;9818;48.382;10.850;2022-12-18T06:16:23;-4.90;99.90
19365;DHT22;9818;48.382;10.850;2022-12-18T06:18:52;-4.90;99.90
19365;DHT22;9818;48.382;10.850;2022-12-18T06:21:20;-4.80;99.90
19365;DHT22;9818;48.382;10.850;2022-12-18T06:23:49;-4.70;99.90
19365;DHT22;9818;48.382;10.850;2022-12-18T06:26:20;-4.80;99.90
19365;DHT22;9818;48.382;10.850;2022-12-18T06:28:49;-4.80;99.90
19365;DHT22;9818;48.382;10.850;2022-12-18T06:31:18;-4.80;99.90
19365;DHT22;9818;48.382;10.850;2022-12-18T06:33:46;-4.90;99.90
19365;DHT22;9818;48.382;10.850;2022-12-18T06:36:15;-4.80;99.90
19365;DHT22;9818;48.382;10.850;2022-12-18T06:38:45;-4.80;99.90
19365;DHT22;9818;48.382;10.850;2022-12-18T06:41:15;-4.80;99.90
19365;DHT22;9818;48.382;10.850;2022-12-18T06:43:46;-4.80;99.90
19365;DHT22;9818;48.382;10.850;2022-12-18T06:46:15;-4.80;99.90
19365;DHT22;9818;48.382;10.850;2022-12-18T06:48:47;-4.80;99.90
19365;DHT22;9818;48.382;10.850;2022-12-18T06:51:17;-4.80;99.90
19365;DHT22;9818;48.382;10.850;2022-12-18T06:53:46;-4.80;99.90
19365;DHT22;9818;48.382;10.850;2022-12-18T06:56:15;-4.80;99.90
19365;DHT22;9818;48.382;10.850;2022-12-18T06:58:46;-4.70;99.90
19365;DHT22;9818;48.382;10.850;2022-12-18T07:01:15;-4.70;99.90
19365;DHT22;9818;48.382;10.850;2022-12-18T07:03:44;-4.70;99.90
19365;DHT22;9818;48.382;10.850;2022-12-18T07:06:16;-4.80;99.90
19365;DHT22;9818;48.382;10.850;2022-12-18T07:08:46;-4.80;99.90
19365;DHT22;9818;48.382;10.850;2022-12-18T07:11:16;-4.90;99.90
19365;DHT22;9818;48.382;10.850;2022-12-18T07:13:48;-4.90;99.90
19365;DHT22;9818;48.382;10.850;2022-12-18T07:16:18;-4.80;99.90
19365;DHT22;9818;48.382;10.850;2022-12-18T07:18:47;-4.80;99.90
19365;DHT22;9818;48.382;10.850;2022-12-18T07:21:18;-4.80;99.90
19365;DHT22;9818;48.382;10.850;2022-12-18T07:23:47;-4.80;99.90
19365;DHT22;9818;48.382;10.850;2022-12-18T07:26:17;-4.80;99.90
19365;DHT22;9818;48.382;10.850;2022-12-18T07:28:49;-4.70;99.90
19365;DHT22;9818;48.382;10.850;2022-12-18T07:31:20;-4.60;99.90
19365;DHT22;9818;48.382;10.850;2022-12-18T07:33:49;-4.60;99.90
19365;DHT22;9818;48.382;10.850;2022-12-18T07:36:18;-4.60;99.90
19365;DHT22;9818;48.382;10.850;2022-12-18T07:38:50;-4.60;99.90
19365;DHT22;9818;48.382;10.850;2022-12-18T07:41:20;-4.50;99.90
19365;DHT22;9818;48.382;10.850;2022-12-18T07:43:51;-4.50;99.90
19365;DHT22;9818;48.382;10.850;2022-12-18T07:46:20;-4.40;99.90
19365;DHT22;9818;48.382;10.850;2022-12-18T07:48:49;-4.50;99.90
19365;DHT22;9818;48.382;10.850;2022-12-18T07:51:17;-4.40;99.90
19365;DHT22;9818;48.382;10.850;2022-12-18T07:53:47;-4.50;99.90
19365;DHT22;9818;48.382;10.850;2022-12-18T07:56:16;-4.50;99.90
19365;DHT22;9818;48.382;10.850;2022-12-18T07:58:47;-4.60;99.90
19365;DHT22;9818;48.382;10.850;2022-12-18T08:01:18;-4.60;99.90
19365;DHT22;9818;48.382;10.850;2022-12-18T08:03:47;-4.50;99.90
19365;DHT22;9818;48.382;10.850;2022-12-18T08:06:15;-4.50;99.90
19365;DHT22;9818;48.382;10.850;2022-12-18T08:08:44;-4.40;99.90
19365;DHT22;9818;48.382;10.850;2022-12-18T08:11:13;-4.30;99.90
19365;DHT22;9818;48.382;10.850;2022-12-18T08:13:41;-4.30;99.90
19365;DHT22;9818;48.382;10.850;2022-12-18T08:16:10;-4.30;99.90
19365;DHT22;9818;48.382;10.850;2022-12-18T08:18:41;-4.20;99.90
19365;DHT22;9818;48.382;10.850;2022-12-18T08:21:11;-4.30;99.90
19365;DHT22;9818;48.382;10.850;2022-12-18T08:23:41;-4.30;99.90
19365;DHT22;9818;48.382;10.850;2022-12-18T08:26:11;-4.40;99.90
19365;DHT22;9818;48.382;10.850;2022-12-18T08:28:40;-4.30;99.90
19365;DHT22;9818;48.382;10.850;2022-12-18T08:31:10;-4.30;99.90
19365;DHT22;9818;48.382;10.850;2022-12-18T08:33:41;-4.10;99.90
19365;DHT22;9818;48.382;10.850;2022-12-18T08:36:10;-4.10;99.90
19365;DHT22;9818;48.382;10.850;2022-12-18T08:38:39;-3.90;99.90
19365;DHT22;9818;48.382;10.850;2022-12-18T08:41:09;-4.00;99.90
19365;DHT22;9818;48.382;10.850;2022-12-18T08:43:38;-4.00;99.90
19365;DHT22;9818;48.382;10.850;2022-12-18T08:46:20;-4.00;99.90
19365;DHT22;9818;48.382;10.850;2022-12-18T08:48:53;-3.90;99.90
19365;DHT22;9818;48.382;10.850;2022-12-18T08:51:22;-3.70;99.90
19365;DHT22;9818;48.382;10.850;2022-12-18T08:53:51;-3.80;99.90
19365;DHT22;9818;48.382;10.850;2022-12-18T08:56:19;-4.00;99.90
19365;DHT22;9818;48.382;10.850;2022-12-18T08:58:51;-4.00;99.90
19365;DHT22;9818;48.382;10.850;2022-12-18T09:01:20;-4.10;99.90
19365;DHT22;9818;48.382;10.850;2022-12-18T09:03:52;-3.90;99.90
19365;DHT22;9818;48.382;10.850;2022-12-18T09:06:22;-4.00;99.90
19365;DHT22;9818;48.382;10.850;2022-12-18T09:08:52;-4.00;99.90
19365;DHT22;9818;48.382;10.850;2022-12-18T09:11:22;-3.90;99.90
19365;DHT22;9818;48.382;10.850;2022-12-18T09:13:52;-4.00;99.90
19365;DHT22;9818;48.382;10.850;2022-12-18T09:16:23;-4.20;99.90
19365;DHT22;9818;48.382;10.850;2022-12-18T09:18:56;-4.10;99.90
19365;DHT22;9818;48.382;10.850;2022-12-18T09:21:29;-4.00;99.90
19365;DHT22;9818;48.382;10.850;2022-12-18T09:23:58;-4.10;99.90
19365;DHT22;9818;48.382;10.850;2022-12-18T09:26:27;-3.90;99.90
19365;DHT22;9818;48.382;10.850;2022-12-18T09:28:56;-3.60;99.90
19365;DHT22;9818;48.382;10.850;2022-12-18T09:31:25;-3.40;99.90
19365;DHT22;9818;48.382;10.850;2022-12-18T09:33:57;-3.40;99.90
19365;DHT22;9818;48.382;10.850;2022-12-18T09:36:26;-3.50;99.90
19365;DHT22;9818;48.382;10.850;2022-12-18T09:38:54;-3.50;99.90
19365;DHT22;9818;48.382;10.850;2022-12-18T09:41:42;-3.40;99.90
19365;DHT22;9818;48.382;10.850;2022-12-18T09:44:18;-3.50;99.90
19365;DHT22;9818;48.382;10.850;2022-12-18T09:46:53;-3.50;99.90
19365;DHT22;9818;48.382;10.850;2022-12-18T09:49:28;-3.60;99.90
19365;DHT22;9818;48.382;10.850;2022-12-18T09:52:02;-3.50;99.90
19365;DHT22;9818;48.382;10.850;2022-12-18T09:54:35;-3.30;99.90
19365;DHT22;9818;48.382;10.850;2022-12-18T09:57:14;-3.10;99.90
19365;DHT22;9818;48.382;10.850;2022-12-18T09:59:46;-3.00;99.90
19365;DHT22;9818;48.382;10.850;2022-12-18T10:02:17;-2.90;99.90
19365;DHT22;9818;48.382;10.850;2022-12-18T10:04:59;-3.10;99.90
19365;DHT22;9818;48.382;10.850;2022-12-18T10:07:40;-3.00;99.90
19365;DHT22;9818;48.382;10.850;2022-12-18T10:10:23;-3.00;99.90
19365;DHT22;9818;48.382;10.850;2022-12-18T10:13:02;-3.10;99.90
19365;DHT22;9818;48.382;10.850;2022-12-18T10:15:38;-3.00;99.90
19365;DHT22;9818;48.382;10.850;2022-12-18T10:18:19;-3.30;99.90
19365;DHT22;9818;48.382;10.850;2022-12-18T10:20:56;-3.50;99.90
19365;DHT22;9818;48.382;10.850;2022-12-18T10:23:32;-3.60;99.90
19365;DHT22;9818;48.382;10.850;2022-12-18T10:26:04;-3.80;99.90
19365;DHT22;9818;48.382;10.850;2022-12-18T10:28:39;-3.70;99.90
19365;DHT22;9818;48.382;10.850;2022-12-18T10:31:13;-3.80;99.90
19365;DHT22;9818;48.382;10.850;2022-12-18T10:33:44;-3.60;99.90
19365;DHT22;9818;48.382;10.850;2022-12-18T10:36:15;-3.60;99.90
19365;DHT22;9818;48.382;10.850;2022-12-18T10:38:44;-3.40;99.90
19365;DHT22;9818;48.382;10.850;2022-12-18T10:41:24;-3.10;99.90
19365;DHT22;9818;48.382;10.850;2022-12-18T10:44:12;-3.00;99.90
19365;DHT22;9818;48.382;10.850;2022-12-18T10:46:41;-2.90;99.90
19365;DHT22;9818;48.382;10.850;2022-12-18T10:49:19;-3.00;99.90
19365;DHT22;9818;48.382;10.850;2022-12-18T10:52:05;-2.90;99.90
19365;DHT22;9818;48.382;10.850;2022-12-18T10:54:36;-3.00;99.90
19365;DHT22;9818;48.382;10.850;2022-12-18T10:57:15;-2.90;99.90
19365;DHT22;9818;48.382;10.850;2022-12-18T10:59:52;-2.90;99.90
19365;DHT22;9818;48.382;10.850;2022-12-18T11:02:33;-2.80;99.90
19365;DHT22;9818;48.382;10.850;2022-12-18T11:05:25;-3.00;99.90
19365;DHT22;9818;48.382;10.850;2022-12-18T11:07:54;-3.00;99.90
19365;DHT22;9818;48.382;10.850;2022-12-18T11:10:27;-3.00;99.90
19365;DHT22;9818;48.382;10.850;2022-12-18T11:12:57;-2.80;99.90
19365;DHT22;9818;48.382;10.850;2022-12-18T11:15:37;-3.10;99.90
19365;DHT22;9818;48.382;10.850;2022-12-18T11:18:16;-3.20;99.90
19365;DHT22;9818;48.382;10.850;2022-12-18T11:20:57;-3.10;99.90
19365;DHT22;9818;48.382;10.850;2022-12-18T11:23:30;-3.30;99.90
19365;DHT22;9818;48.382;10.850;2022-12-18T11:26:01;-3.50;99.90
19365;DHT22;9818;48.382;10.850;2022-12-18T11:28:37;-3.10;99.90
19365;DHT22;9818;48.382;10.850;2022-12-18T11:31:22;-3.20;99.90
19365;DHT22;9818;48.382;10.850;2022-12-18T11:33:56;-3.20;99.90
19365;DHT22;9818;48.382;10.850;2022-12-18T11:36:30;-3.10;99.90
19365;DHT22;9818;48.382;10.850;2022-12-18T11:39:09;-3.20;99.90
19365;DHT22;9818;48.382;10.850;2022-12-18T11:41:45;-3.10;99.90
19365;DHT22;9818;48.382;10.850;2022-12-18T11:44:31;-3.10;99.90
19365;DHT22;9818;48.382;10.850;2022-12-18T11:47:09;-3.40;99.90
19365;DHT22;9818;48.382;10.850;2022-12-18T11:49:41;-3.30;99.90
19365;DHT22;9818;48.382;10.850;2022-12-18T11:52:18;-2.90;99.90
19365;DHT22;9818;48.382;10.850;2022-12-18T11:54:56;-2.80;99.90
19365;DHT22;9818;48.382;10.850;2022-12-18T11:57:34;-2.80;99.90
19365;DHT22;9818;48.382;10.850;2022-12-18T12:00:12;-2.70;99.90
19365;DHT22;9818;48.382;10.850;2022-12-18T12:02:57;-2.80;99.90
19365;DHT22;9818;48.382;10.850;2022-12-18T12:05:42;-3.00;99.90
19365;DHT22;9818;48.382;10.850;2022-12-18T12:08:20;-2.80;99.90
19365;DHT22;9818;48.382;10.850;2022-12-18T12:11:04;-3.00;99.90
19365;DHT22;9818;48.382;10.850;2022-12-18T12:13:44;-3.00;99.90
19365;DHT22;9818;48.382;10.850;2022-12-18T12:16:20;-3.00;99.90
19365;DHT22;9818;48.382;10.850;2022-12-18T12:19:05;-2.70;99.90
19365;DHT22;9818;48.382;10.850;2022-12-18T12:21:39;-2.70;99.90
19365;DHT22;9818;48.382;10.850;2022-12-18T12:24:22;-2.60;99.90
19365;DHT22;9818;48.382;10.850;2022-12-18T12:27:05;-2.80;99.90
19365;DHT22;9818;48.382;10.850;2022-12-18T12:29:46;-2.70;99.90
19365;DHT22;9818;48.382;10.850;2022-12-18T12:32:28;-2.90;99.90
19365;DHT22;9818;48.382;10.850;2022-12-18T12:35:09;-2.80;99.90
19365;DHT22;9818;48.382;10.850;2022-12-18T12:37:48;-2.70;99.90
19365;DHT22;9818;48.382;10.850;2022-12-18T12:40:23;-2.50;99.90
19365;DHT22;9818;48.382;10.850;2022-12-18T12:42:58;-2.40;99.90
19365;DHT22;9818;48.382;10.850;2022-12-18T12:45:44;-2.40;99.90
19365;DHT22;9818;48.382;10.850;2022-12-18T12:48:20;-2.40;99.90
19365;DHT22;9818;48.382;10.850;2022-12-18T12:50:51;-2.40;99.90
19365;DHT22;9818;48.382;10.850;2022-12-18T12:53:25;-2.50;99.90
19365;DHT22;9818;48.382;10.850;2022-12-18T12:55:55;-2.40;99.90
19365;DHT22;9818;48.382;10.850;2022-12-18T12:58:34;-2.30;99.90
19365;DHT22;9818;48.382;10.850;2022-12-18T13:01:12;-2.30;99.90
19365;DHT22;9818;48.382;10.850;2022-12-18T13:03:49;-2.60;99.90
19365;DHT22;9818;48.382;10.850;2022-12-18T13:06:29;-3.10;99.90
19365;DHT22;9818;48.382;10.850;2022-12-18T13:09:02;-3.20;99.90
19365;DHT22;9818;48.382;10.850;2022-12-18T13:11:35;-3.20;99.90
19365;DHT22;9818;48.382;10.850;2022-12-18T13:14:28;-3.40;99.90
19365;DHT22;9818;48.382;10.850;2022-12-18T13:17:24;-3.40;99.90
19365;DHT22;9818;48.382;10.850;2022-12-18T13:20:06;-3.40;99.90
19365;DHT22;9818;48.382;10.850;2022-12-18T13:22:37;-3.40;99.90
19365;DHT22;9818;48.382;10.850;2022-12-18T13:25:28;-3.40;99.90
19365;DHT22;9818;48.382;10.850;2022-12-18T13:28:10;-3.60;99.90
19365;DHT22;9818;48.382;10.850;2022-12-18T13:30:50;-3.40;99.90
19365;DHT22;9818;48.382;10.850;2022-12-18T13:33:38;-3.40;99.90
19365;DHT22;9818;48.382;10.850;2022-12-18T13:36:15;-3.30;99.90
19365;DHT22;9818;48.382;10.850;2022-12-18T13:38:44;-3.40;99.90
19365;DHT22;9818;48.382;10.850;2022-12-18T13:41:24;-3.40;99.90
19365;DHT22;9818;48.382;10.850;2022-12-18T13:43:54;-3.50;99.90
19365;DHT22;9818;48.382;10.850;2022-12-18T13:46:28;-3.30;99.90
19365;DHT22;9818;48.382;10.850;2022-12-18T13:49:00;-3.20;99.90
19365;DHT22;9818;48.382;10.850;2022-12-18T13:51:32;-3.20;99.90
19365;DHT22;9818;48.382;10.850;2022-12-18T13:54:05;-3.20;99.90
19365;DHT22;9818;48.382;10.850;2022-12-18T13:56:34;-3.30;99.90
19365;DHT22;9818;48.382;10.850;2022-12-18T13:59:14;-3.30;99.90
19365;DHT22;9818;48.382;10.850;2022-12-18T14:01:48;-3.50;99.90
19365;DHT22;9818;48.382;10.850;2022-12-18T14:04:24;-3.50;99.90
19365;DHT22;9818;48.382;10.850;2022-12-18T14:06:56;-3.50;99.90
19365;DHT22;9818;48.382;10.850;2022-12-18T14:09:28;-3.50;99.90
19365;DHT22;9818;48.382;10.850;2022-12-18T14:11:57;-3.50;99.90
19365;DHT22;9818;48.382;10.850;2022-12-18T14:14:41;-3.70;99.90
19365;DHT22;9818;48.382;10.850;2022-12-18T14:17:13;-3.50;99.90
19365;DHT22;9818;48.382;10.850;2022-12-18T14:19:44;-3.40;99.90
19365;DHT22;9818;48.382;10.850;2022-12-18T14:22:16;-3.50;99.90
19365;DHT22;9818;48.382;10.850;2022-12-18T14:24:45;-3.70;99.90
19365;DHT22;9818;48.382;10.850;2022-12-18T14:27:23;-3.60;99.90
19365;DHT22;9818;48.382;10.850;2022-12-18T14:29:52;-3.60;99.90
19365;DHT22;9818;48.382;10.850;2022-12-18T14:32:23;-3.60;99.90
19365;DHT22;9818;48.382;10.850;2022-12-18T14:34:53;-3.60;99.90
19365;DHT22;9818;48.382;10.850;2022-12-18T14:37:24;-3.60;99.90
19365;DHT22;9818;48.382;10.850;2022-12-18T14:39:55;-3.70;99.90
19365;DHT22;9818;48.382;10.850;2022-12-18T14:42:25;-3.80;99.90
19365;DHT22;9818;48.382;10.850;2022-12-18T14:47:56;-3.80;99.90
19365;DHT22;9818;48.382;10.850;2022-12-18T14:50:25;-3.80;99.90
19365;DHT22;9818;48.382;10.850;2022-12-18T14:52:54;-3.80;99.90
19365;DHT22;9818;48.382;10.850;2022-12-18T14:55:22;-3.80;99.90
19365;DHT22;9818;48.382;10.850;2022-12-18T14:57:53;-3.70;99.90
19365;DHT22;9818;48.382;10.850;2022-12-18T15:00:24;-3.70;99.90
19365;DHT22;9818;48.382;10.850;2022-12-18T15:02:56;-3.70;99.90
19365;DHT22;9818;48.382;10.850;2022-12-18T15:05:27;-3.70;99.90
19365;DHT22;9818;48.382;10.850;2022-12-18T15:07:59;-3.90;99.90
19365;DHT22;9818;48.382;10.850;2022-12-18T15:10:29;-4.00;99.90
19365;DHT22;9818;48.382;10.850;2022-12-18T15:13:15;-4.10;99.90
19365;DHT22;9818;48.382;10.850;2022-12-18T15:15:49;-4.20;99.90
19365;DHT22;9818;48.382;10.850;2022-12-18T15:18:23;-4.20;99.90
19365;DHT22;9818;48.382;10.850;2022-12-18T15:20:54;-4.10;99.90
19365;DHT22;9818;48.382;10.850;2022-12-18T15:23:24;-4.10;99.90
19365;DHT22;9818;48.382;10.850;2022-12-18T15:25:57;-4.20;99.90
19365;DHT22;9818;48.382;10.850;2022-12-18T15:28:28;-4.10;99.90
19365;DHT22;9818;48.382;10.850;2022-12-18T15:31:04;-4.10;99.90
19365;DHT22;9818;48.382;10.850;2022-12-18T15:33:38;-4.20;99.90
19365;DHT22;9818;48.382;10.850;2022-12-18T15:36:09;-4.30;99.90
19365;DHT22;9818;48.382;10.850;2022-12-18T15:38:38;-4.20;99.90
19365;DHT22;9818;48.382;10.850;2022-12-18T15:41:12;-4.30;99.90
19365;DHT22;9818;48.382;10.850;2022-12-18T15:43:41;-4.30;99.90
19365;DHT22;9818;48.382;10.850;2022-12-18T15:46:11;-4.30;99.90
19365;DHT22;9818;48.382;10.850;2022-12-18T15:48:44;-4.20;99.90
19365;DHT22;9818;48.382;10.850;2022-12-18T15:51:16;-4.30;99.90
19365;DHT22;9818;48.382;10.850;2022-12-18T15:53:46;-4.20;99.90
19365;DHT22;9818;48.382;10.850;2022-12-18T15:56:16;-4.20;99.90
19365;DHT22;9818;48.382;10.850;2022-12-18T15:58:57;-4.20;99.90
19365;DHT22;9818;48.382;10.850;2022-12-18T16:01:27;-4.20;99.90
19365;DHT22;9818;48.382;10.850;2022-12-18T16:03:59;-4.20;99.90
19365;DHT22;9818;48.382;10.850;2022-12-18T16:06:28;-4.20;99.90
19365;DHT22;9818;48.382;10.850;2022-12-18T16:08:56;-4.20;99.90
19365;DHT22;9818;48.382;10.850;2022-12-18T16:11:27;-4.20;99.90
19365;DHT22;9818;48.382;10.850;2022-12-18T16:14:16;-4.30;99.90
19365;DHT22;9818;48.382;10.850;2022-12-18T16:16:46;-4.30;99.90
19365;DHT22;9818;48.382;10.850;2022-12-18T16:19:18;-4.30;99.90